sensor_id;sensor_type;location;lat;lon;timestamp;pressure;altitude;pressure_sealevel;temperature;humidity
54290;BME280;40196;39.774;2.728;2022-07-18T00:02:08;101366.38;;;27.75;56.75
54290;BME280;40196;39.774;2.728;2022-07-18T00:04:33;101370.50;;;27.78;56.47
54290;BME280;40196;39.774;2.728;2022-07-18T00:06:58;101362.47;;;27.71;56.61
54290;BME280;40196;39.774;2.728;2022-07-18T00:09:24;101358.22;;;27.63;56.84
54290;BME280;40196;39.774;2.728;2022-07-18T00:11:50;101355.84;;;27.67;56.36
54290;BME280;40196;39.774;2.728;2022-07-18T00:14:16;101365.03;;;27.66;56.19
54290;BME280;40196;39.774;2.728;2022-07-18T00:16:42;101372.34;;;27.65;56.13
54290;BME280;40196;39.774;2.728;2022-07-18T00:19:07;101359.03;;;27.64;55.88
54290;BME280;40196;39.774;2.728;2022-07-18T00:21:33;101358.88;;;27.59;55.92
54290;BME280;40196;39.774;2.728;2022-07-18T00:23:58;101361.59;;;27.59;55.67
54290;BME280;40196;39.774;2.728;2022-07-18T00:26:24;101356.19;;;27.59;55.47
54290;BME280;40196;39.774;2.728;2022-07-18T00:28:49;101349.91;;;27.46;55.35
54290;BME280;40196;39.774;2.728;2022-07-18T00:31:14;101355.09;;;27.48;55.50
54290;BME280;40196;39.774;2.728;2022-07-18T00:33:40;101361.50;;;27.35;55.86
54290;BME280;40196;39.774;2.728;2022-07-18T00:36:05;101357.16;;;27.34;55.57
54290;BME280;40196;39.774;2.728;2022-07-18T00:38:30;101357.97;;;27.34;55.81
54290;BME280;40196;39.774;2.728;2022-07-18T00:40:56;101355.63;;;27.20;55.86
54290;BME280;40196;39.774;2.728;2022-07-18T00:43:21;101360.06;;;27.14;56.23
54290;BME280;40196;39.774;2.728;2022-07-18T00:45:47;101354.66;;;27.14;56.42
54290;BME280;40196;39.774;2.728;2022-07-18T00:48:13;101356.19;;;26.91;56.85
54290;BME280;40196;39.774;2.728;2022-07-18T00:50:38;101360.47;;;26.99;56.71
54290;BME280;40196;39.774;2.728;2022-07-18T00:53:04;101355.00;;;26.87;56.96
54290;BME280;40196;39.774;2.728;2022-07-18T00:55:30;101355.34;;;26.91;57.00
54290;BME280;40196;39.774;2.728;2022-07-18T00:57:56;101353.47;;;26.73;57.13
54290;BME280;40196;39.774;2.728;2022-07-18T01:00:21;101349.50;;;26.75;57.13
54290;BME280;40196;39.774;2.728;2022-07-18T01:03:05;101346.63;;;26.70;57.29
54290;BME280;40196;39.774;2.728;2022-07-18T01:05:30;101349.25;;;26.77;57.44
54290;BME280;40196;39.774;2.728;2022-07-18T01:07:56;101350.09;;;26.78;57.08
54290;BME280;40196;39.774;2.728;2022-07-18T01:10:21;101351.69;;;26.85;56.92
54290;BME280;40196;39.774;2.728;2022-07-18T01:12:46;101347.91;;;26.86;56.46
54290;BME280;40196;39.774;2.728;2022-07-18T01:15:12;101343.72;;;26.72;56.61
54290;BME280;40196;39.774;2.728;2022-07-18T01:17:37;101335.00;;;26.45;57.73
54290;BME280;40196;39.774;2.728;2022-07-18T01:20:03;101328.03;;;26.12;58.88
54290;BME280;40196;39.774;2.728;2022-07-18T01:22:29;101336.34;;;26.35;58.16
54290;BME280;40196;39.774;2.728;2022-07-18T01:24:54;101334.16;;;26.44;58.06
54290;BME280;40196;39.774;2.728;2022-07-18T01:27:20;101339.31;;;26.52;57.87
54290;BME280;40196;39.774;2.728;2022-07-18T01:29:47;101335.16;;;26.50;57.73
54290;BME280;40196;39.774;2.728;2022-07-18T01:32:13;101341.44;;;26.44;57.52
54290;BME280;40196;39.774;2.728;2022-07-18T01:34:39;101335.72;;;26.33;57.75
54290;BME280;40196;39.774;2.728;2022-07-18T01:37:05;101330.41;;;26.45;57.36
54290;BME280;40196;39.774;2.728;2022-07-18T01:39:30;101339.13;;;26.47;57.18
54290;BME280;40196;39.774;2.728;2022-07-18T01:41:56;101339.34;;;26.46;57.19
54290;BME280;40196;39.774;2.728;2022-07-18T01:44:22;101329.44;;;26.40;57.44
54290;BME280;40196;39.774;2.728;2022-07-18T01:46:47;101330.63;;;26.44;57.07
54290;BME280;40196;39.774;2.728;2022-07-18T01:49:13;101329.59;;;26.45;57.17
54290;BME280;40196;39.774;2.728;2022-07-18T01:51:38;101334.06;;;26.32;57.02
54290;BME280;40196;39.774;2.728;2022-07-18T01:54:03;101324.13;;;26.26;57.08
54290;BME280;40196;39.774;2.728;2022-07-18T01:56:28;101324.13;;;26.08;57.41
54290;BME280;40196;39.774;2.728;2022-07-18T01:58:54;101327.47;;;26.03;57.85
54290;BME280;40196;39.774;2.728;2022-07-18T02:01:19;101326.41;;;26.04;57.83
54290;BME280;40196;39.774;2.728;2022-07-18T02:03:44;101328.84;;;26.12;57.63
54290;BME280;40196;39.774;2.728;2022-07-18T02:06:10;101330.28;;;26.15;57.37
54290;BME280;40196;39.774;2.728;2022-07-18T02:08:35;101322.13;;;25.96;57.49
54290;BME280;40196;39.774;2.728;2022-07-18T02:11:00;101325.94;;;25.82;58.15
54290;BME280;40196;39.774;2.728;2022-07-18T02:13:26;101327.13;;;25.93;57.61
54290;BME280;40196;39.774;2.728;2022-07-18T02:15:51;101324.41;;;26.00;57.76
54290;BME280;40196;39.774;2.728;2022-07-18T02:18:20;101332.03;;;26.03;57.31
54290;BME280;40196;39.774;2.728;2022-07-18T02:20:45;101325.97;;;26.07;57.56
54290;BME280;40196;39.774;2.728;2022-07-18T02:23:11;101320.13;;;26.10;57.29
54290;BME280;40196;39.774;2.728;2022-07-18T02:25:36;101316.94;;;25.95;57.19
54290;BME280;40196;39.774;2.728;2022-07-18T02:28:01;101327.53;;;25.96;57.07
54290;BME280;40196;39.774;2.728;2022-07-18T02:30:27;101336.75;;;25.82;57.71
54290;BME280;40196;39.774;2.728;2022-07-18T02:32:52;101333.47;;;25.73;58.02
54290;BME280;40196;39.774;2.728;2022-07-18T02:35:17;101330.03;;;25.60;58.60
54290;BME280;40196;39.774;2.728;2022-07-18T02:37:43;101329.75;;;25.74;58.20
54290;BME280;40196;39.774;2.728;2022-07-18T02:40:09;101333.44;;;25.80;58.04
54290;BME280;40196;39.774;2.728;2022-07-18T02:42:35;101327.59;;;25.83;57.99
54290;BME280;40196;39.774;2.728;2022-07-18T02:45:00;101326.19;;;25.74;57.94
54290;BME280;40196;39.774;2.728;2022-07-18T02:47:25;101322.31;;;25.63;57.73
54290;BME280;40196;39.774;2.728;2022-07-18T02:49:51;101327.34;;;25.60;58.31
54290;BME280;40196;39.774;2.728;2022-07-18T02:52:16;101322.81;;;25.47;58.23
54290;BME280;40196;39.774;2.728;2022-07-18T02:54:42;101325.94;;;25.50;58.61
54290;BME280;40196;39.774;2.728;2022-07-18T02:57:07;101326.28;;;25.61;58.41
54290;BME280;40196;39.774;2.728;2022-07-18T02:59:32;101326.06;;;25.62;58.09
54290;BME280;40196;39.774;2.728;2022-07-18T03:01:58;101321.13;;;25.52;58.17
54290;BME280;40196;39.774;2.728;2022-07-18T03:04:24;101325.13;;;25.50;58.40
54290;BME280;40196;39.774;2.728;2022-07-18T03:06:49;101323.69;;;25.41;58.61
54290;BME280;40196;39.774;2.728;2022-07-18T03:09:15;101319.91;;;25.48;58.32
54290;BME280;40196;39.774;2.728;2022-07-18T03:11:40;101318.28;;;25.47;58.37
54290;BME280;40196;39.774;2.728;2022-07-18T03:14:06;101324.50;;;25.48;57.91
54290;BME280;40196;39.774;2.728;2022-07-18T03:16:31;101318.88;;;25.49;57.82
54290;BME280;40196;39.774;2.728;2022-07-18T03:18:57;101311.66;;;25.43;57.67
54290;BME280;40196;39.774;2.728;2022-07-18T03:21:22;101315.50;;;25.22;58.55
54290;BME280;40196;39.774;2.728;2022-07-18T03:23:48;101315.28;;;25.17;58.67
54290;BME280;40196;39.774;2.728;2022-07-18T03:26:13;101319.09;;;25.03;58.92
54290;BME280;40196;39.774;2.728;2022-07-18T03:28:38;101307.66;;;25.07;58.88
54290;BME280;40196;39.774;2.728;2022-07-18T03:31:04;101316.16;;;25.11;58.85
54290;BME280;40196;39.774;2.728;2022-07-18T03:33:29;101317.97;;;25.17;58.84
54290;BME280;40196;39.774;2.728;2022-07-18T03:35:55;101315.09;;;25.12;58.79
54290;BME280;40196;39.774;2.728;2022-07-18T03:38:20;101319.06;;;25.09;58.82
54290;BME280;40196;39.774;2.728;2022-07-18T03:40:46;101316.09;;;25.17;58.95
54290;BME280;40196;39.774;2.728;2022-07-18T03:43:11;101321.72;;;25.23;58.76
54290;BME280;40196;39.774;2.728;2022-07-18T03:45:36;101316.94;;;25.25;58.39
54290;BME280;40196;39.774;2.728;2022-07-18T03:48:02;101320.03;;;25.22;58.32
54290;BME280;40196;39.774;2.728;2022-07-18T03:50:27;101321.34;;;25.06;58.45
54290;BME280;40196;39.774;2.728;2022-07-18T03:52:53;101321.19;;;24.94;58.73
54290;BME280;40196;39.774;2.728;2022-07-18T03:55:18;101326.81;;;24.86;58.89
54290;BME280;40196;39.774;2.728;2022-07-18T03:57:44;101328.06;;;24.90;58.84
54290;BME280;40196;39.774;2.728;2022-07-18T04:00:09;101325.38;;;24.76;59.47
54290;BME280;40196;39.774;2.728;2022-07-18T04:02:41;101333.94;;;24.67;59.40
54290;BME280;40196;39.774;2.728;2022-07-18T04:05:07;101323.75;;;24.69;59.69
54290;BME280;40196;39.774;2.728;2022-07-18T04:07:33;101328.53;;;24.73;59.39
54290;BME280;40196;39.774;2.728;2022-07-18T04:09:58;101327.69;;;24.79;59.59
54290;BME280;40196;39.774;2.728;2022-07-18T04:12:23;101330.75;;;24.90;59.07
54290;BME280;40196;39.774;2.728;2022-07-18T04:14:49;101330.34;;;24.93;58.83
54290;BME280;40196;39.774;2.728;2022-07-18T04:17:14;101329.28;;;24.94;59.14
54290;BME280;40196;39.774;2.728;2022-07-18T04:19:39;101333.06;;;24.73;59.35
54290;BME280;40196;39.774;2.728;2022-07-18T04:22:04;101330.59;;;24.71;59.19
54290;BME280;40196;39.774;2.728;2022-07-18T04:24:30;101329.75;;;24.71;59.06
54290;BME280;40196;39.774;2.728;2022-07-18T04:26:55;101322.50;;;24.78;59.36
54290;BME280;40196;39.774;2.728;2022-07-18T04:29:20;101324.16;;;24.79;58.91
54290;BME280;40196;39.774;2.728;2022-07-18T04:31:46;101331.03;;;24.68;59.18
54290;BME280;40196;39.774;2.728;2022-07-18T04:34:12;101329.41;;;24.54;59.40
54290;BME280;40196;39.774;2.728;2022-07-18T04:36:37;101328.56;;;24.53;59.71
54290;BME280;40196;39.774;2.728;2022-07-18T04:39:02;101333.94;;;24.67;59.27
54290;BME280;40196;39.774;2.728;2022-07-18T04:41:28;101327.28;;;24.63;59.34
54290;BME280;40196;39.774;2.728;2022-07-18T04:43:53;101336.22;;;24.50;59.58
54290;BME280;40196;39.774;2.728;2022-07-18T04:46:18;101333.94;;;24.47;59.42
54290;BME280;40196;39.774;2.728;2022-07-18T04:48:44;101326.91;;;24.52;59.46
54290;BME280;40196;39.774;2.728;2022-07-18T04:51:09;101329.16;;;24.62;59.55
54290;BME280;40196;39.774;2.728;2022-07-18T04:53:34;101330.59;;;24.71;58.84
54290;BME280;40196;39.774;2.728;2022-07-18T04:55:59;101332.03;;;24.67;59.02
54290;BME280;40196;39.774;2.728;2022-07-18T04:58:25;101333.31;;;24.65;59.08
54290;BME280;40196;39.774;2.728;2022-07-18T05:00:50;101335.19;;;24.64;59.01
54290;BME280;40196;39.774;2.728;2022-07-18T05:03:16;101339.75;;;24.50;59.32
54290;BME280;40196;39.774;2.728;2022-07-18T05:05:41;101341.22;;;24.53;59.02
54290;BME280;40196;39.774;2.728;2022-07-18T05:08:07;101339.97;;;24.55;59.03
54290;BME280;40196;39.774;2.728;2022-07-18T05:10:32;101338.72;;;24.51;59.40
54290;BME280;40196;39.774;2.728;2022-07-18T05:12:58;101342.88;;;24.60;59.53
54290;BME280;40196;39.774;2.728;2022-07-18T05:15:24;101343.91;;;24.53;59.66
54290;BME280;40196;39.774;2.728;2022-07-18T05:17:49;101343.91;;;24.53;59.82
54290;BME280;40196;39.774;2.728;2022-07-18T05:20:16;101338.28;;;24.48;60.10
54290;BME280;40196;39.774;2.728;2022-07-18T05:22:42;101334.78;;;24.34;60.24
54290;BME280;40196;39.774;2.728;2022-07-18T05:25:08;101342.03;;;24.40;60.42
54290;BME280;40196;39.774;2.728;2022-07-18T05:27:34;101347.84;;;24.57;60.19
54290;BME280;40196;39.774;2.728;2022-07-18T05:29:59;101340.56;;;24.64;59.59
54290;BME280;40196;39.774;2.728;2022-07-18T05:32:25;101341.81;;;24.68;59.51
54290;BME280;40196;39.774;2.728;2022-07-18T05:34:51;101340.38;;;24.59;60.10
54290;BME280;40196;39.774;2.728;2022-07-18T05:37:16;101346.78;;;24.65;59.85
54290;BME280;40196;39.774;2.728;2022-07-18T05:39:41;101345.34;;;24.55;60.51
54290;BME280;40196;39.774;2.728;2022-07-18T05:42:07;101341.41;;;24.65;60.15
54290;BME280;40196;39.774;2.728;2022-07-18T05:44:32;101345.13;;;24.77;60.14
54290;BME280;40196;39.774;2.728;2022-07-18T05:46:57;101336.59;;;24.87;59.72
54290;BME280;40196;39.774;2.728;2022-07-18T05:49:23;101340.97;;;24.81;59.71
54290;BME280;40196;39.774;2.728;2022-07-18T05:51:48;101342.00;;;24.87;59.87
54290;BME280;40196;39.774;2.728;2022-07-18T05:54:13;101344.84;;;24.92;59.92
54290;BME280;40196;39.774;2.728;2022-07-18T05:56:44;101342.34;;;24.97;59.41
54290;BME280;40196;39.774;2.728;2022-07-18T05:59:09;101342.75;;;25.01;59.43
54290;BME280;40196;39.774;2.728;2022-07-18T06:01:35;101344.41;;;25.08;59.87
54290;BME280;40196;39.774;2.728;2022-07-18T06:04:00;101345.78;;;25.17;59.31
54290;BME280;40196;39.774;2.728;2022-07-18T06:06:25;101349.34;;;25.25;59.44
54290;BME280;40196;39.774;2.728;2022-07-18T06:08:51;101351.78;;;25.33;58.83
54290;BME280;40196;39.774;2.728;2022-07-18T06:11:16;101349.88;;;25.40;58.79
54290;BME280;40196;39.774;2.728;2022-07-18T06:13:41;101348.16;;;25.52;58.66
54290;BME280;40196;39.774;2.728;2022-07-18T06:16:07;101347.88;;;25.61;58.29
54290;BME280;40196;39.774;2.728;2022-07-18T06:18:33;101353.44;;;25.72;57.80
54290;BME280;40196;39.774;2.728;2022-07-18T06:21:02;101349.19;;;25.83;57.57
54290;BME280;40196;39.774;2.728;2022-07-18T06:23:27;101345.44;;;25.91;57.19
54290;BME280;40196;39.774;2.728;2022-07-18T06:25:54;101350.00;;;25.90;56.68
54290;BME280;40196;39.774;2.728;2022-07-18T06:28:19;101346.00;;;26.00;56.62
54290;BME280;40196;39.774;2.728;2022-07-18T06:30:44;101342.34;;;26.12;56.14
54290;BME280;40196;39.774;2.728;2022-07-18T06:33:10;101340.44;;;26.20;55.97
54290;BME280;40196;39.774;2.728;2022-07-18T06:35:35;101342.25;;;26.26;55.42
54290;BME280;40196;39.774;2.728;2022-07-18T06:38:01;101336.75;;;26.32;55.25
54290;BME280;40196;39.774;2.728;2022-07-18T06:40:26;101340.25;;;26.40;55.50
54290;BME280;40196;39.774;2.728;2022-07-18T06:42:52;101337.84;;;26.50;54.85
54290;BME280;40196;39.774;2.728;2022-07-18T06:45:17;101344.66;;;26.59;54.46
54290;BME280;40196;39.774;2.728;2022-07-18T06:47:43;101338.72;;;26.69;53.94
54290;BME280;40196;39.774;2.728;2022-07-18T06:50:09;101347.53;;;26.83;53.61
54290;BME280;40196;39.774;2.728;2022-07-18T06:52:36;101346.78;;;26.94;53.40
54290;BME280;40196;39.774;2.728;2022-07-18T06:55:01;101354.53;;;27.09;53.09
54290;BME280;40196;39.774;2.728;2022-07-18T06:57:27;101350.81;;;27.22;52.20
54290;BME280;40196;39.774;2.728;2022-07-18T06:59:53;101356.09;;;27.35;52.07
54290;BME280;40196;39.774;2.728;2022-07-18T07:02:19;101352.84;;;27.45;51.20
54290;BME280;40196;39.774;2.728;2022-07-18T07:04:44;101353.69;;;27.57;50.97
54290;BME280;40196;39.774;2.728;2022-07-18T07:07:09;101357.97;;;27.65;50.01
54290;BME280;40196;39.774;2.728;2022-07-18T07:09:35;101349.19;;;27.81;49.75
54290;BME280;40196;39.774;2.728;2022-07-18T07:12:00;101352.41;;;27.90;49.63
54290;BME280;40196;39.774;2.728;2022-07-18T07:14:25;101355.38;;;28.00;48.97
54290;BME280;40196;39.774;2.728;2022-07-18T07:16:51;101359.16;;;28.11;48.74
54290;BME280;40196;39.774;2.728;2022-07-18T07:19:16;101359.41;;;28.21;48.73
54290;BME280;40196;39.774;2.728;2022-07-18T07:21:42;101361.53;;;28.31;48.75
54290;BME280;40196;39.774;2.728;2022-07-18T07:24:07;101352.34;;;28.44;49.08
54290;BME280;40196;39.774;2.728;2022-07-18T07:26:33;101355.31;;;28.54;48.96
54290;BME280;40196;39.774;2.728;2022-07-18T07:28:58;101360.88;;;28.59;49.08
54290;BME280;40196;39.774;2.728;2022-07-18T07:31:23;101361.91;;;28.70;48.49
54290;BME280;40196;39.774;2.728;2022-07-18T07:33:49;101354.22;;;28.79;48.75
54290;BME280;40196;39.774;2.728;2022-07-18T07:36:14;101362.59;;;28.89;46.92
54290;BME280;40196;39.774;2.728;2022-07-18T07:38:40;101363.41;;;29.01;46.72
54290;BME280;40196;39.774;2.728;2022-07-18T07:41:05;101360.88;;;29.12;45.71
54290;BME280;40196;39.774;2.728;2022-07-18T07:43:31;101361.34;;;29.20;43.92
54290;BME280;40196;39.774;2.728;2022-07-18T07:45:57;101354.72;;;29.28;42.86
54290;BME280;40196;39.774;2.728;2022-07-18T07:48:22;101358.13;;;29.35;42.86
54290;BME280;40196;39.774;2.728;2022-07-18T07:50:48;101355.59;;;29.45;41.79
54290;BME280;40196;39.774;2.728;2022-07-18T07:53:13;101359.78;;;29.53;41.48
54290;BME280;40196;39.774;2.728;2022-07-18T07:55:38;101351.25;;;29.61;41.41
54290;BME280;40196;39.774;2.728;2022-07-18T07:58:04;101347.88;;;29.71;41.48
54290;BME280;40196;39.774;2.728;2022-07-18T08:00:32;101347.53;;;29.79;40.97
54290;BME280;40196;39.774;2.728;2022-07-18T08:03:00;101351.75;;;29.87;41.37
54290;BME280;40196;39.774;2.728;2022-07-18T08:05:27;101347.78;;;29.95;40.33
54290;BME280;40196;39.774;2.728;2022-07-18T08:07:52;101352.81;;;30.03;40.46
54290;BME280;40196;39.774;2.728;2022-07-18T08:10:18;101346.38;;;30.09;39.96
54290;BME280;40196;39.774;2.728;2022-07-18T08:12:43;101341.59;;;30.16;40.39
54290;BME280;40196;39.774;2.728;2022-07-18T08:15:08;101341.09;;;30.19;40.48
54290;BME280;40196;39.774;2.728;2022-07-18T08:17:34;101342.31;;;30.28;40.33
54290;BME280;40196;39.774;2.728;2022-07-18T08:19:59;101350.09;;;30.37;40.73
54290;BME280;40196;39.774;2.728;2022-07-18T08:22:25;101348.28;;;30.42;40.43
54290;BME280;40196;39.774;2.728;2022-07-18T08:24:50;101341.56;;;30.50;40.06
54290;BME280;40196;39.774;2.728;2022-07-18T08:27:16;101349.53;;;30.57;40.66
54290;BME280;40196;39.774;2.728;2022-07-18T08:29:41;101346.41;;;30.65;40.35
54290;BME280;40196;39.774;2.728;2022-07-18T08:32:06;101343.16;;;30.68;40.30
54290;BME280;40196;39.774;2.728;2022-07-18T08:34:33;101342.44;;;30.73;40.34
54290;BME280;40196;39.774;2.728;2022-07-18T08:36:58;101338.69;;;30.79;39.99
54290;BME280;40196;39.774;2.728;2022-07-18T08:39:23;101341.22;;;30.85;40.01
54290;BME280;40196;39.774;2.728;2022-07-18T08:41:50;101339.66;;;30.90;39.88
54290;BME280;40196;39.774;2.728;2022-07-18T08:44:15;101342.78;;;30.98;39.92
54290;BME280;40196;39.774;2.728;2022-07-18T08:46:41;101350.00;;;31.10;38.55
54290;BME280;40196;39.774;2.728;2022-07-18T08:49:09;101351.94;;;31.14;38.57
54290;BME280;40196;39.774;2.728;2022-07-18T08:51:37;101347.69;;;31.23;38.65
54290;BME280;40196;39.774;2.728;2022-07-18T08:54:02;101349.16;;;31.31;37.73
54290;BME280;40196;39.774;2.728;2022-07-18T08:56:28;101343.53;;;31.43;37.91
54290;BME280;40196;39.774;2.728;2022-07-18T08:58:54;101348.31;;;31.53;39.88
54290;BME280;40196;39.774;2.728;2022-07-18T09:01:19;101351.06;;;31.58;39.36
54290;BME280;40196;39.774;2.728;2022-07-18T09:03:45;101352.78;;;31.64;39.11
54290;BME280;40196;39.774;2.728;2022-07-18T09:06:31;101350.38;;;31.73;39.60
54290;BME280;40196;39.774;2.728;2022-07-18T09:09:05;101349.66;;;31.82;37.54
54290;BME280;40196;39.774;2.728;2022-07-18T09:11:31;101347.53;;;31.90;36.54
54290;BME280;40196;39.774;2.728;2022-07-18T09:13:56;101350.94;;;32.02;35.77
54290;BME280;40196;39.774;2.728;2022-07-18T09:16:21;101347.16;;;32.08;36.89
54290;BME280;40196;39.774;2.728;2022-07-18T09:18:47;101345.34;;;32.19;36.97
54290;BME280;40196;39.774;2.728;2022-07-18T09:21:14;101347.25;;;32.23;37.04
54290;BME280;40196;39.774;2.728;2022-07-18T09:23:41;101347.06;;;32.30;37.34
54290;BME280;40196;39.774;2.728;2022-07-18T09:26:08;101355.00;;;32.37;37.28
54290;BME280;40196;39.774;2.728;2022-07-18T09:28:45;101351.75;;;32.45;36.66
54290;BME280;40196;39.774;2.728;2022-07-18T09:31:21;101352.88;;;32.49;35.72
54290;BME280;40196;39.774;2.728;2022-07-18T09:33:53;101358.72;;;32.58;35.30
54290;BME280;40196;39.774;2.728;2022-07-18T09:36:18;101357.91;;;32.57;36.35
54290;BME280;40196;39.774;2.728;2022-07-18T09:38:44;101354.66;;;32.71;36.62
54290;BME280;40196;39.774;2.728;2022-07-18T09:41:10;101360.97;;;32.76;37.16
54290;BME280;40196;39.774;2.728;2022-07-18T09:43:36;101358.00;;;32.83;36.95
54290;BME280;40196;39.774;2.728;2022-07-18T09:46:03;101361.00;;;32.81;34.54
54290;BME280;40196;39.774;2.728;2022-07-18T09:48:29;101366.47;;;32.81;34.80
54290;BME280;40196;39.774;2.728;2022-07-18T09:50:59;101367.53;;;32.80;35.11
54290;BME280;40196;39.774;2.728;2022-07-18T09:53:25;101361.28;;;32.85;35.82
54290;BME280;40196;39.774;2.728;2022-07-18T09:55:55;101363.22;;;32.85;37.58
54290;BME280;40196;39.774;2.728;2022-07-18T09:58:21;101367.00;;;32.78;38.33
54290;BME280;40196;39.774;2.728;2022-07-18T10:00:47;101367.84;;;32.84;38.17
54290;BME280;40196;39.774;2.728;2022-07-18T10:03:13;101365.13;;;32.89;38.81
54290;BME280;40196;39.774;2.728;2022-07-18T10:05:39;101365.69;;;32.91;39.16
54290;BME280;40196;39.774;2.728;2022-07-18T10:08:09;101371.19;;;32.96;42.12
54290;BME280;40196;39.774;2.728;2022-07-18T10:10:35;101370.09;;;33.08;42.33
54290;BME280;40196;39.774;2.728;2022-07-18T10:13:01;101377.28;;;33.19;41.70
54290;BME280;40196;39.774;2.728;2022-07-18T10:15:28;101371.84;;;33.29;40.58
54290;BME280;40196;39.774;2.728;2022-07-18T10:17:54;101379.50;;;33.32;40.55
54290;BME280;40196;39.774;2.728;2022-07-18T10:20:26;101377.88;;;33.31;40.87
54290;BME280;40196;39.774;2.728;2022-07-18T10:22:53;101379.25;;;33.39;40.60
54290;BME280;40196;39.774;2.728;2022-07-18T10:25:21;101378.16;;;33.35;41.75
54290;BME280;40196;39.774;2.728;2022-07-18T10:30:15;101378.47;;;33.44;38.76
54290;BME280;40196;39.774;2.728;2022-07-18T10:32:41;101380.94;;;33.45;37.88
54290;BME280;40196;39.774;2.728;2022-07-18T10:35:06;101376.25;;;33.40;38.14
54290;BME280;40196;39.774;2.728;2022-07-18T10:37:32;101374.34;;;33.41;39.60
54290;BME280;40196;39.774;2.728;2022-07-18T10:42:44;101382.28;;;33.58;39.42
54290;BME280;40196;39.774;2.728;2022-07-18T10:45:42;101379.81;;;33.56;38.89
54290;BME280;40196;39.774;2.728;2022-07-18T10:51:01;101376.00;;;33.52;39.15
54290;BME280;40196;39.774;2.728;2022-07-18T10:56:11;101379.06;;;33.66;39.17
54290;BME280;40196;39.774;2.728;2022-07-18T10:58:38;101370.31;;;33.85;39.31
54290;BME280;40196;39.774;2.728;2022-07-18T11:01:04;101366.78;;;33.94;40.56
54290;BME280;40196;39.774;2.728;2022-07-18T11:03:31;101373.03;;;34.10;37.78
54290;BME280;40196;39.774;2.728;2022-07-18T11:05:57;101374.44;;;34.08;38.28
54290;BME280;40196;39.774;2.728;2022-07-18T11:08:23;101378.50;;;34.05;39.18
54290;BME280;40196;39.774;2.728;2022-07-18T11:16:13;101368.94;;;34.28;37.46
54290;BME280;40196;39.774;2.728;2022-07-18T11:23:42;101375.50;;;34.37;37.82
54290;BME280;40196;39.774;2.728;2022-07-18T11:26:09;101368.13;;;34.33;38.58
54290;BME280;40196;39.774;2.728;2022-07-18T11:28:38;101367.28;;;34.43;36.22
54290;BME280;40196;39.774;2.728;2022-07-18T11:31:05;101371.94;;;34.37;36.77
54290;BME280;40196;39.774;2.728;2022-07-18T11:33:32;101374.41;;;34.39;37.25
54290;BME280;40196;39.774;2.728;2022-07-18T11:38:29;101372.47;;;34.49;34.84
54290;BME280;40196;39.774;2.728;2022-07-18T11:40:54;101374.63;;;34.63;35.07
54290;BME280;40196;39.774;2.728;2022-07-18T11:43:21;101369.72;;;34.70;35.53
54290;BME280;40196;39.774;2.728;2022-07-18T11:45:46;101362.03;;;34.72;35.54
54290;BME280;40196;39.774;2.728;2022-07-18T11:48:11;101361.22;;;34.71;36.42
54290;BME280;40196;39.774;2.728;2022-07-18T11:50:45;101360.66;;;34.69;34.22
54290;BME280;40196;39.774;2.728;2022-07-18T11:53:10;101356.81;;;34.75;35.02
54290;BME280;40196;39.774;2.728;2022-07-18T11:55:37;101354.31;;;34.79;34.95
54290;BME280;40196;39.774;2.728;2022-07-18T11:58:06;101349.09;;;34.83;33.48
54290;BME280;40196;39.774;2.728;2022-07-18T12:00:32;101352.03;;;34.96;34.36
54290;BME280;40196;39.774;2.728;2022-07-18T12:03:07;101350.88;;;35.13;33.71
54290;BME280;40196;39.774;2.728;2022-07-18T12:05:37;101341.53;;;35.24;32.86
54290;BME280;40196;39.774;2.728;2022-07-18T12:14:29;101352.31;;;35.50;31.94
54290;BME280;40196;39.774;2.728;2022-07-18T12:19:05;101353.00;;;35.71;29.09
54290;BME280;40196;39.774;2.728;2022-07-18T12:21:43;101347.97;;;35.83;29.50
54290;BME280;40196;39.774;2.728;2022-07-18T12:24:25;101347.88;;;35.93;28.73
54290;BME280;40196;39.774;2.728;2022-07-18T12:27:10;101344.84;;;35.95;29.53
54290;BME280;40196;39.774;2.728;2022-07-18T12:32:25;101339.91;;;35.92;32.11
54290;BME280;40196;39.774;2.728;2022-07-18T12:35:09;101335.13;;;35.79;32.50
54290;BME280;40196;39.774;2.728;2022-07-18T12:37:35;101343.81;;;35.86;32.61
54290;BME280;40196;39.774;2.728;2022-07-18T12:40:05;101329.72;;;35.98;34.53
54290;BME280;40196;39.774;2.728;2022-07-18T12:42:32;101337.50;;;36.15;33.82
54290;BME280;40196;39.774;2.728;2022-07-18T12:44:58;101330.31;;;36.24;33.21
54290;BME280;40196;39.774;2.728;2022-07-18T12:47:23;101337.66;;;36.28;34.18
54290;BME280;40196;39.774;2.728;2022-07-18T12:49:49;101336.75;;;36.38;32.67
54290;BME280;40196;39.774;2.728;2022-07-18T12:52:14;101328.38;;;36.48;32.40
54290;BME280;40196;39.774;2.728;2022-07-18T12:54:39;101335.22;;;36.51;33.43
54290;BME280;40196;39.774;2.728;2022-07-18T12:57:05;101330.66;;;36.41;32.67
54290;BME280;40196;39.774;2.728;2022-07-18T12:59:30;101327.44;;;36.58;31.79
54290;BME280;40196;39.774;2.728;2022-07-18T13:01:55;101325.03;;;36.76;32.89
54290;BME280;40196;39.774;2.728;2022-07-18T13:04:21;101324.84;;;36.91;29.12
54290;BME280;40196;39.774;2.728;2022-07-18T13:06:46;101322.41;;;37.08;31.12
54290;BME280;40196;39.774;2.728;2022-07-18T13:09:11;101324.53;;;37.17;30.01
54290;BME280;40196;39.774;2.728;2022-07-18T13:11:37;101324.81;;;37.34;30.73
54290;BME280;40196;39.774;2.728;2022-07-18T13:14:05;101319.38;;;37.48;31.29
54290;BME280;40196;39.774;2.728;2022-07-18T13:16:30;101319.97;;;37.64;29.27
54290;BME280;40196;39.774;2.728;2022-07-18T13:18:56;101318.16;;;37.73;27.69
54290;BME280;40196;39.774;2.728;2022-07-18T13:21:21;101317.44;;;37.67;29.49